KRFI

Rusk County Airport

Henderson, Texas, USA
METAR KRFI 202335Z AUTO 28008KT 10SM CLR 35/20 A2991 RMK AO2 T03500201
Observed Flight Rules
Aug-20 @ 23:35 UTC (32 minutes ago) Visual Flight Rules
Wind Visibility Clouds
280° at 8 knots 10 miles
  • Clear skies
Temperatures Readings
Current 35°C / 95°F
Dewpoint 20°C / 68°F
Humidity 41%
Altimeter 29.91" Hg
Pressure 1013 hPa
Elevation 135
METAR KRFI 202335Z AUTO 28008KT 10SM CLR 35/20 A2991 RMK AO2 T03500201
Observed Flight Rules
Aug-20 @ 23:35 UTC
(32 minutes ago)
VFR
Wind Visibility
280° at 8 knots 10 miles
Clouds
  • Clear skies
Temperature Dewpoint
35°C / 95°F 20°C / 68°F
Humidity Altimeter Pressure
41% 29.91" Hg 1013 hPa